createdAt,value
2022-09-20T00:01:16.773Z,11.49
2022-09-20T00:03:46.190Z,11.53
2022-09-20T00:06:18.890Z,11.50
2022-09-20T00:08:46.909Z,11.51
2022-09-20T00:11:18.751Z,11.50
2022-09-20T00:13:48.271Z,11.49
2022-09-20T00:16:21.314Z,11.50
2022-09-20T00:18:53.390Z,11.46
2022-09-20T00:21:23.232Z,11.48
2022-09-20T00:23:50.230Z,11.47
2022-09-20T00:26:17.810Z,11.51
2022-09-20T00:28:47.273Z,11.52
2022-09-20T00:31:15.443Z,11.55
2022-09-20T00:34:01.570Z,11.54
2022-09-20T00:36:29.151Z,11.41
2022-09-20T00:39:00.970Z,11.49
2022-09-20T00:41:30.670Z,11.46
2022-09-20T00:43:58.271Z,11.51
2022-09-20T00:46:38.030Z,11.53
2022-09-20T00:49:25.877Z,11.56
2022-09-20T00:51:58.031Z,11.58
2022-09-20T00:54:26.951Z,11.63
2022-09-20T00:56:54.070Z,11.65
2022-09-20T00:59:31.410Z,11.67
2022-09-20T01:02:09.893Z,11.76
2022-09-20T01:04:39.811Z,11.81
2022-09-20T01:07:09.480Z,11.86
2022-09-20T01:09:36.631Z,11.91
2022-09-20T01:12:09.630Z,11.95
2022-09-20T01:14:36.770Z,12.00
2022-09-20T01:17:06.290Z,12.00
2022-09-20T01:19:54.630Z,12.07
2022-09-20T01:22:26.965Z,12.12
2022-09-20T01:25:27.509Z,12.15
2022-09-20T01:27:55.169Z,12.20
2022-09-20T01:30:32.390Z,12.26
2022-09-20T01:33:05.230Z,12.28
2022-09-20T01:35:35.677Z,12.30
2022-09-20T01:38:31.670Z,12.30
2022-09-20T01:41:23.479Z,12.25
2022-09-20T01:44:04.030Z,12.18
2022-09-20T01:46:33.613Z,12.19
2022-09-20T01:49:19.170Z,12.11
2022-09-20T01:52:19.771Z,12.08
2022-09-20T01:55:20.210Z,12.04
2022-09-20T01:58:10.394Z,12.01
2022-09-20T02:00:56.215Z,11.99
2022-09-20T02:03:50.871Z,11.96
2022-09-20T02:06:41.310Z,11.85
2022-09-20T02:09:30.050Z,11.82
2022-09-20T02:12:15.918Z,11.75
2022-09-20T02:14:55.990Z,11.76
2022-09-20T02:18:00.230Z,11.69
2022-09-20T02:20:45.718Z,11.67
2022-09-20T02:23:27.171Z,11.60
2022-09-20T02:26:35.872Z,11.55
2022-09-20T02:29:18.151Z,11.53
2022-09-20T02:32:06.384Z,11.51
2022-09-20T02:34:44.630Z,11.48
2022-09-20T02:37:11.569Z,11.46
2022-09-20T02:39:59.632Z,11.44
2022-09-20T02:42:59.710Z,11.40
2022-09-20T02:45:38.562Z,11.35
2022-09-20T02:48:06.590Z,11.37
2022-09-20T02:50:41.431Z,11.37
2022-09-20T02:53:43.527Z,11.36
2022-09-20T02:56:30.710Z,11.33
2022-09-20T02:59:09.710Z,11.36
2022-09-20T03:01:54.963Z,11.37
2022-09-20T03:04:43.690Z,11.40
2022-09-20T03:07:23.990Z,11.37
2022-09-20T03:10:13.032Z,11.45
2022-09-20T03:12:57.730Z,11.49
2022-09-20T03:15:27.770Z,11.52
2022-09-20T03:18:06.859Z,11.51
2022-09-20T03:21:03.849Z,11.52
2022-09-20T03:23:40.631Z,11.56
2022-09-20T03:26:17.310Z,11.51
2022-09-20T03:29:16.310Z,11.46
2022-09-20T03:31:55.445Z,11.46
2022-09-20T03:34:34.631Z,11.43
2022-09-20T03:37:30.956Z,11.41
2022-09-20T03:40:19.823Z,11.43
2022-09-20T03:42:49.938Z,11.48
2022-09-20T03:45:44.938Z,11.51
2022-09-20T03:48:15.154Z,11.54
2022-09-20T03:51:01.612Z,11.53
2022-09-20T03:53:40.990Z,11.51
2022-09-20T03:56:22.990Z,11.49
2022-09-20T03:58:55.718Z,11.50
2022-09-20T04:01:45.450Z,11.51
2022-09-20T04:04:31.553Z,11.52
2022-09-20T04:07:28.710Z,11.48
2022-09-20T04:10:49.531Z,11.49
2022-09-20T04:13:48.071Z,11.55
2022-09-20T04:16:41.775Z,11.62
2022-09-20T04:19:15.320Z,11.62
2022-09-20T04:21:58.775Z,11.63
2022-09-20T04:24:50.581Z,11.65
2022-09-20T04:27:29.322Z,11.71
2022-09-20T04:30:02.397Z,11.72
2022-09-20T04:32:41.959Z,11.73
2022-09-20T04:35:49.256Z,11.77
2022-09-20T04:38:19.934Z,11.74
2022-09-20T04:40:49.599Z,11.71
2022-09-20T04:43:35.585Z,11.70
2022-09-20T04:46:35.863Z,11.69
2022-09-20T04:49:27.035Z,11.68
2022-09-20T04:52:04.376Z,11.67
2022-09-20T04:54:55.748Z,11.68
2022-09-20T04:57:47.216Z,11.69
2022-09-20T05:00:19.084Z,11.66
2022-09-20T05:03:13.518Z,11.66
2022-09-20T05:05:46.535Z,11.62
2022-09-20T05:08:25.436Z,11.61
2022-09-20T05:11:42.598Z,11.63
2022-09-20T05:14:22.981Z,11.63
2022-09-20T05:17:08.217Z,11.61
2022-09-20T05:20:02.816Z,11.63
2022-09-20T05:23:00.296Z,11.67
2022-09-20T05:25:46.134Z,11.67
2022-09-20T05:28:25.796Z,11.72
2022-09-20T05:31:03.436Z,11.74
2022-09-20T05:33:45.678Z,11.71
2022-09-20T05:36:18.495Z,11.73
2022-09-20T05:38:58.071Z,11.77
2022-09-20T05:41:33.515Z,11.81
2022-09-20T05:44:15.656Z,11.83
2022-09-20T05:46:50.815Z,11.87
2022-09-20T05:49:36.875Z,11.92
2022-09-20T05:52:31.174Z,11.99
2022-09-20T05:55:22.096Z,12.05
2022-09-20T05:58:04.315Z,12.06
2022-09-20T06:00:56.096Z,12.14
2022-09-20T06:03:48.796Z,12.21
2022-09-20T06:06:33.856Z,12.22
2022-09-20T06:09:12.896Z,12.28
2022-09-20T06:12:05.524Z,12.35
2022-09-20T06:14:48.037Z,12.40
2022-09-20T06:17:59.615Z,12.43
2022-09-20T06:20:30.036Z,12.54
2022-09-20T06:23:00.996Z,12.61
2022-09-20T06:25:31.415Z,12.65
2022-09-20T06:28:33.544Z,12.67
2022-09-20T06:31:00.704Z,12.75
2022-09-20T06:33:29.195Z,12.81
2022-09-20T06:35:59.075Z,12.93
2022-09-20T06:38:58.077Z,12.99
2022-09-20T06:41:28.834Z,13.09
2022-09-20T06:44:05.760Z,13.14
2022-09-20T06:46:35.878Z,13.25
2022-09-20T06:49:08.495Z,13.32
2022-09-20T06:51:38.379Z,13.47
2022-09-20T06:54:08.356Z,13.59
2022-09-20T06:56:36.972Z,13.67
2022-09-20T06:59:08.853Z,13.71
2022-09-20T07:01:36.366Z,13.82
2022-09-20T07:04:04.556Z,13.85
2022-09-20T07:06:31.594Z,13.93
2022-09-20T07:08:58.716Z,14.01
2022-09-20T07:11:26.497Z,14.04
2022-09-20T07:13:55.795Z,14.18
2022-09-20T07:16:23.107Z,14.19
2022-09-20T07:18:52.516Z,14.27
2022-09-20T07:21:21.103Z,14.18
2022-09-20T07:23:51.503Z,14.36
2022-09-20T07:26:23.956Z,14.43
2022-09-20T07:28:51.415Z,14.52
2022-09-20T07:31:19.997Z,14.55
2022-09-20T07:33:47.579Z,14.43
2022-09-20T07:36:14.736Z,14.44
2022-09-20T07:38:43.264Z,14.61
2022-09-20T07:41:10.975Z,14.50
2022-09-20T07:43:38.023Z,14.45
2022-09-20T07:46:05.265Z,14.44
2022-09-20T07:48:34.716Z,14.43
2022-09-20T07:51:10.177Z,14.43
2022-09-20T07:53:38.056Z,14.27
2022-09-20T07:56:14.375Z,14.41
2022-09-20T07:58:42.576Z,14.35
2022-09-20T08:01:12.721Z,14.42
2022-09-20T08:03:40.716Z,14.31
2022-09-20T08:06:10.696Z,14.36
2022-09-20T08:08:40.867Z,14.41
2022-09-20T08:11:14.603Z,14.49
2022-09-20T08:16:43.082Z,14.80
2022-09-20T08:19:18.980Z,14.86
2022-09-20T08:21:46.234Z,14.91
2022-09-20T08:24:13.697Z,14.98
2022-09-20T08:26:40.702Z,15.10
2022-09-20T08:29:07.987Z,15.10
2022-09-20T08:31:42.578Z,15.34
2022-09-20T08:34:12.251Z,15.38
2022-09-20T08:36:41.816Z,15.53
2022-09-20T08:42:20.255Z,15.82
2022-09-20T08:45:00.538Z,15.97
2022-09-20T08:47:54.180Z,16.04
2022-09-20T08:50:23.656Z,16.19
2022-09-20T08:53:00.078Z,16.25
2022-09-20T08:55:36.435Z,16.18
2022-09-20T08:58:08.511Z,16.25
2022-09-20T09:00:37.981Z,16.38
2022-09-20T09:03:17.436Z,16.35
2022-09-20T09:05:48.554Z,16.53
2022-09-20T09:08:19.335Z,16.43
2022-09-20T09:10:54.367Z,16.84
2022-09-20T09:13:53.989Z,16.99
2022-09-20T09:16:30.362Z,17.34
2022-09-20T09:19:33.293Z,17.72
2022-09-20T09:22:05.979Z,17.92
2022-09-20T09:24:33.214Z,18.23
2022-09-20T09:27:19.555Z,18.36
2022-09-20T09:29:54.777Z,18.31
2022-09-20T09:32:31.465Z,18.40
2022-09-20T09:35:31.294Z,18.37
2022-09-20T09:38:01.043Z,18.15
2022-09-20T09:40:32.535Z,17.97
2022-09-20T09:43:01.821Z,17.97
2022-09-20T09:45:38.960Z,17.79
2022-09-20T09:48:32.317Z,17.94
2022-09-20T09:51:23.775Z,18.11
2022-09-20T09:53:51.695Z,18.27
2022-09-20T09:56:36.935Z,18.45
2022-09-20T09:59:30.535Z,18.74
2022-09-20T10:02:13.369Z,18.78
2022-09-20T10:05:11.415Z,19.05
2022-09-20T10:07:56.215Z,19.41
2022-09-20T10:10:55.434Z,19.43
2022-09-20T10:13:46.777Z,19.52
2022-09-20T10:16:33.274Z,19.49
2022-09-20T10:19:25.040Z,19.87
2022-09-20T10:22:16.335Z,20.20
2022-09-20T10:24:51.553Z,20.36
2022-09-20T10:27:49.398Z,20.46
2022-09-20T10:30:31.724Z,20.66
2022-09-20T10:33:18.537Z,20.82
2022-09-20T10:36:18.855Z,21.11
2022-09-20T10:39:06.177Z,21.57
2022-09-20T10:42:33.255Z,21.86
2022-09-20T10:45:53.379Z,22.00
2022-09-20T10:48:22.876Z,21.92
2022-09-20T10:51:15.894Z,22.17
2022-09-20T10:54:07.500Z,22.47
2022-09-20T10:56:39.861Z,22.58
2022-09-20T10:59:38.216Z,22.60
2022-09-20T11:14:04.219Z,19.37
2022-09-20T11:16:42.068Z,19.07
2022-09-20T11:19:18.758Z,18.95
2022-09-20T11:21:52.896Z,18.72
2022-09-20T11:24:29.163Z,18.65
2022-09-20T11:27:18.937Z,18.49
2022-09-20T11:30:04.116Z,18.09
2022-09-20T11:32:59.055Z,17.66
2022-09-20T11:35:37.795Z,17.63
2022-09-20T11:38:18.195Z,17.51
2022-09-20T11:40:58.305Z,17.40
2022-09-20T11:43:29.258Z,17.29
2022-09-20T11:46:00.952Z,17.46
2022-09-20T11:48:30.323Z,17.20
2022-09-20T11:51:24.182Z,17.35
2022-09-20T11:54:00.138Z,17.39
2022-09-20T11:56:31.256Z,17.55
2022-09-20T11:59:01.816Z,17.68
2022-09-20T12:01:35.894Z,17.88
2022-09-20T12:04:33.015Z,17.89
2022-09-20T12:07:09.753Z,18.05
2022-09-20T12:09:42.974Z,18.41
2022-09-20T12:12:20.854Z,18.90
2022-09-20T12:14:59.874Z,19.26
2022-09-20T12:17:44.897Z,19.40
2022-09-20T12:20:38.863Z,19.44
2022-09-20T12:23:43.157Z,19.34
2022-09-20T12:26:22.036Z,19.34
2022-09-20T12:29:00.774Z,19.38
2022-09-20T12:31:34.488Z,19.35
2022-09-20T12:34:04.376Z,19.02
2022-09-20T12:36:35.604Z,18.65
2022-09-20T12:39:11.718Z,18.64
2022-09-20T12:41:55.615Z,18.21
2022-09-20T12:44:42.516Z,18.10
2022-09-20T12:47:12.538Z,18.27
2022-09-20T12:50:04.340Z,18.15
2022-09-20T12:52:52.814Z,18.17
2022-09-20T12:55:46.658Z,17.99
2022-09-20T12:58:14.530Z,18.03
2022-09-20T13:00:46.740Z,17.88
2022-09-20T13:03:58.915Z,17.95
2022-09-20T13:06:26.535Z,17.95
2022-09-20T13:09:04.473Z,17.80
2022-09-20T13:11:57.197Z,17.77
2022-09-20T13:14:28.375Z,17.75
2022-09-20T13:17:07.298Z,17.76
2022-09-20T13:19:39.276Z,17.74
2022-09-20T13:22:12.575Z,17.57
2022-09-20T13:24:43.375Z,17.29
2022-09-20T13:27:25.856Z,17.38
2022-09-20T13:29:53.634Z,17.50
2022-09-20T13:32:34.657Z,17.67
2022-09-20T13:35:32.635Z,17.58
2022-09-20T13:38:09.896Z,17.61
2022-09-20T13:40:43.924Z,17.41
2022-09-20T13:43:36.614Z,17.21
2022-09-20T13:46:18.780Z,17.50
2022-09-20T13:48:52.935Z,18.09
2022-09-20T13:51:28.138Z,18.70
2022-09-20T13:54:29.614Z,19.43
2022-09-20T13:57:01.936Z,20.21
2022-09-20T13:59:45.178Z,21.02
2022-09-20T14:02:33.716Z,22.02
2022-09-20T14:05:04.415Z,23.29
2022-09-20T14:07:32.635Z,24.12
2022-09-20T14:10:00.432Z,24.82
2022-09-20T14:12:28.755Z,25.74
2022-09-20T14:14:56.575Z,26.19
2022-09-20T14:17:25.009Z,26.69
2022-09-20T14:19:54.707Z,27.18
2022-09-20T14:22:28.095Z,27.37
2022-09-20T14:25:22.459Z,27.34
2022-09-20T14:28:04.135Z,26.62
2022-09-20T14:30:36.856Z,26.32
2022-09-20T14:33:07.456Z,25.42
2022-09-20T14:35:34.606Z,24.91
2022-09-20T14:38:08.759Z,24.67
2022-09-20T14:40:47.403Z,24.06
2022-09-20T14:43:35.223Z,23.56
2022-09-20T14:46:03.492Z,22.80
2022-09-20T14:48:41.583Z,22.44
2022-09-20T14:51:22.534Z,21.93
2022-09-20T14:54:13.553Z,21.39
2022-09-20T14:56:49.319Z,21.15
2022-09-20T14:59:19.383Z,20.84
2022-09-20T15:01:59.465Z,20.57
2022-09-20T15:04:28.296Z,20.20
2022-09-20T15:06:57.113Z,20.04
2022-09-20T15:09:24.491Z,19.95
2022-09-20T15:12:21.762Z,19.96
2022-09-20T15:14:49.283Z,19.64
2022-09-20T15:17:21.655Z,19.53
2022-09-20T15:19:49.576Z,19.41
2022-09-20T15:22:16.694Z,19.08
2022-09-20T15:24:44.393Z,19.09
2022-09-20T15:27:12.484Z,19.03
2022-09-20T15:29:40.210Z,18.97
2022-09-20T15:32:10.275Z,18.61
2022-09-20T15:34:37.242Z,18.39
2022-09-20T15:37:05.002Z,18.50
2022-09-20T15:39:31.984Z,18.32
2022-09-20T15:41:58.945Z,18.29
2022-09-20T15:44:25.943Z,18.05
2022-09-20T15:46:53.923Z,18.11
2022-09-20T15:49:21.884Z,18.26
2022-09-20T15:51:48.833Z,18.06
2022-09-20T15:54:16.011Z,18.05
2022-09-20T15:56:43.033Z,17.99
2022-09-20T15:59:11.787Z,17.99
2022-09-20T16:01:44.343Z,18.02
2022-09-20T16:04:13.842Z,17.93
2022-09-20T16:06:43.212Z,17.85
2022-09-20T16:09:10.313Z,17.83
2022-09-20T16:11:38.933Z,17.71
2022-09-20T16:14:07.314Z,17.59
2022-09-20T16:16:39.980Z,17.31
2022-09-20T16:19:20.984Z,17.20
2022-09-20T16:21:59.202Z,17.05
2022-09-20T16:24:30.242Z,16.71
2022-09-20T16:26:58.490Z,16.63
2022-09-20T16:29:26.147Z,16.59
2022-09-20T16:31:54.815Z,16.58
2022-09-20T16:34:23.204Z,16.47
2022-09-20T16:36:54.012Z,16.38
2022-09-20T16:39:26.472Z,16.31
2022-09-20T16:41:57.300Z,16.20
2022-09-20T16:44:24.724Z,16.13
2022-09-20T16:46:51.903Z,16.12
2022-09-20T16:49:18.942Z,16.01
2022-09-20T16:51:47.092Z,15.94
2022-09-20T16:54:15.344Z,15.83
2022-09-20T16:56:50.950Z,15.81
2022-09-20T16:59:23.222Z,15.77
2022-09-20T17:01:51.010Z,15.68
2022-09-20T17:04:20.405Z,15.61
2022-09-20T17:06:48.831Z,15.51
2022-09-20T17:09:16.713Z,15.44
2022-09-20T17:11:46.242Z,15.33
2022-09-20T17:14:14.408Z,15.21
2022-09-20T17:16:42.141Z,15.10
2022-09-20T17:19:11.663Z,15.08
2022-09-20T17:21:43.604Z,14.97
2022-09-20T17:24:10.982Z,14.88
2022-09-20T17:26:40.432Z,14.77
2022-09-20T17:29:14.111Z,14.61
2022-09-20T17:31:44.154Z,14.51
2022-09-20T17:34:12.980Z,14.43
2022-09-20T17:36:42.655Z,14.37
2022-09-20T17:39:12.886Z,14.27
2022-09-20T17:41:45.822Z,14.18
2022-09-20T17:44:13.534Z,14.15
2022-09-20T17:46:45.302Z,14.08
2022-09-20T17:49:18.274Z,14.03
2022-09-20T17:51:47.464Z,13.99
2022-09-20T17:54:16.043Z,13.90
2022-09-20T17:56:45.364Z,13.88
2022-09-20T17:59:16.393Z,13.79
2022-09-20T18:01:45.533Z,13.80
2022-09-20T18:04:13.764Z,13.70
2022-09-20T18:06:45.144Z,13.59
2022-09-20T18:09:16.042Z,13.50
2022-09-20T18:11:51.437Z,13.46
2022-09-20T18:14:23.414Z,13.46
2022-09-20T18:16:58.318Z,13.31
2022-09-20T18:19:32.674Z,13.31
2022-09-20T18:22:01.693Z,13.19
2022-09-20T18:24:29.674Z,13.17
2022-09-20T18:26:56.764Z,13.15
2022-09-20T18:29:25.017Z,13.13
2022-09-20T18:31:54.679Z,13.13
2022-09-20T18:34:27.083Z,13.11
2022-09-20T18:36:56.322Z,13.02
2022-09-20T18:39:27.051Z,12.93
2022-09-20T18:41:54.903Z,12.94
2022-09-20T18:44:23.085Z,12.86
2022-09-20T18:46:53.255Z,12.81
2022-09-20T18:49:21.862Z,12.78
2022-09-20T18:51:50.292Z,12.69
2022-09-20T18:54:18.213Z,12.80
2022-09-20T18:56:47.426Z,12.84
2022-09-20T18:59:26.729Z,12.84
2022-09-20T19:02:02.923Z,12.85
2022-09-20T19:04:57.152Z,12.95
2022-09-20T19:07:47.344Z,13.02
2022-09-20T19:10:47.283Z,13.08
2022-09-20T19:13:26.995Z,13.05
2022-09-20T19:16:14.359Z,12.98
2022-09-20T19:18:59.041Z,13.08
2022-09-20T19:21:35.116Z,13.14
2022-09-20T19:24:36.303Z,13.16
2022-09-20T19:27:03.493Z,13.15
2022-09-20T19:29:30.683Z,13.16
2022-09-20T19:31:59.434Z,13.20
2022-09-20T19:34:28.785Z,13.17
2022-09-20T19:37:04.964Z,13.11
2022-09-20T19:39:34.943Z,13.17
2022-09-20T19:42:36.473Z,13.20
2022-09-20T19:45:51.182Z,13.19
2022-09-20T19:48:38.337Z,13.19
2022-09-20T19:51:11.265Z,13.16
2022-09-20T19:53:39.615Z,13.19
2022-09-20T19:56:18.803Z,13.16
2022-09-20T19:58:46.995Z,13.12
2022-09-20T20:01:14.235Z,13.09
2022-09-20T20:03:41.563Z,13.03
2022-09-20T20:06:23.133Z,13.08
2022-09-20T20:09:09.943Z,13.10
2022-09-20T20:11:48.048Z,13.09
2022-09-20T20:14:20.803Z,13.04
2022-09-20T20:17:09.486Z,13.05
2022-09-20T20:20:01.300Z,12.95
2022-09-20T20:22:41.251Z,12.97
2022-09-20T20:25:40.456Z,12.90
2022-09-20T20:28:09.385Z,12.81
2022-09-20T20:30:36.572Z,12.86
2022-09-20T20:33:05.303Z,12.90
2022-09-20T20:35:32.443Z,12.83
2022-09-20T20:37:59.383Z,12.86
2022-09-20T20:40:26.502Z,12.93
2022-09-20T20:43:02.363Z,12.93
2022-09-20T20:45:30.423Z,12.89
2022-09-20T20:47:58.822Z,12.86
2022-09-20T20:50:27.313Z,12.79
2022-09-20T20:52:55.851Z,12.78
2022-09-20T20:55:24.184Z,12.74
2022-09-20T20:57:58.427Z,12.70
2022-09-20T21:00:26.651Z,12.62
2022-09-20T21:03:00.954Z,12.62
2022-09-20T21:05:54.063Z,12.58
2022-09-20T21:08:21.043Z,12.58
2022-09-20T21:10:47.934Z,12.54
2022-09-20T21:13:14.963Z,12.53
2022-09-20T21:15:41.925Z,12.43
2022-09-20T21:18:09.845Z,12.39
2022-09-20T21:20:38.653Z,12.31
2022-09-20T21:23:05.674Z,12.29
2022-09-20T21:25:32.553Z,12.26
2022-09-20T21:27:59.523Z,12.22
2022-09-20T21:30:26.724Z,12.17
2022-09-20T21:32:54.215Z,12.21
2022-09-20T21:35:21.251Z,12.23
2022-09-20T21:37:48.723Z,12.19
2022-09-20T21:40:15.740Z,12.20
2022-09-20T21:42:42.700Z,12.16
2022-09-20T21:45:11.109Z,12.09
2022-09-20T21:47:38.085Z,12.11
2022-09-20T21:50:05.364Z,12.06
2022-09-20T21:52:32.343Z,12.06
2022-09-20T21:54:59.265Z,12.03
2022-09-20T21:57:27.441Z,12.02
2022-09-20T21:59:54.391Z,12.05
2022-09-20T22:02:21.339Z,12.08
2022-09-20T22:04:48.213Z,12.06
2022-09-20T22:07:16.114Z,12.08
2022-09-20T22:09:43.023Z,12.06
2022-09-20T22:12:10.032Z,12.02
2022-09-20T22:14:39.614Z,12.06
2022-09-20T22:17:06.583Z,12.01
2022-09-20T22:19:33.492Z,11.99
2022-09-20T22:22:00.463Z,11.99
2022-09-20T22:24:27.393Z,12.00
2022-09-20T22:26:54.393Z,11.87
2022-09-20T22:29:22.273Z,11.85
2022-09-20T22:31:50.286Z,11.75
2022-09-20T22:34:19.643Z,11.63
2022-09-20T22:36:47.395Z,11.47
2022-09-20T22:39:15.181Z,11.41
2022-09-20T22:41:43.234Z,11.38
2022-09-20T22:44:11.457Z,11.32
2022-09-20T22:46:38.594Z,11.34
2022-09-20T22:49:06.973Z,11.35
2022-09-20T22:51:33.983Z,11.22
2022-09-20T22:54:05.971Z,11.25
2022-09-20T22:56:33.334Z,11.23
2022-09-20T22:59:05.444Z,11.12
2022-09-20T23:01:35.325Z,11.00
2022-09-20T23:04:08.251Z,10.98
2022-09-20T23:06:41.722Z,10.92
2022-09-20T23:09:11.553Z,10.89
2022-09-20T23:11:42.225Z,10.82
2022-09-20T23:14:11.982Z,10.81
2022-09-20T23:16:39.324Z,10.78
2022-09-20T23:19:07.872Z,10.72
2022-09-20T23:21:36.924Z,10.66
2022-09-20T23:24:06.163Z,10.59
2022-09-20T23:26:35.342Z,10.59
2022-09-20T23:29:05.095Z,10.56
2022-09-20T23:31:34.757Z,10.52
2022-09-20T23:34:03.814Z,10.51
2022-09-20T23:36:33.254Z,10.52
2022-09-20T23:39:00.253Z,10.47
2022-09-20T23:41:28.612Z,10.46
2022-09-20T23:43:55.572Z,10.49
2022-09-20T23:46:24.633Z,10.48
2022-09-20T23:48:51.755Z,10.49
2022-09-20T23:51:22.617Z,10.45
2022-09-20T23:53:51.052Z,10.43
2022-09-20T23:56:18.584Z,10.42
2022-09-20T23:58:45.934Z,10.38
